Nearby METAR Reports

 

KFNL - Ft Collins/Lovel, Colorado, USA
Distance from station: E 23mi, 37km
Updated: Mon, 13-Jul-2020 2:14pm MDT
Partly cloudy
Partly cloudy
 Wind from SSW
Wind: SSW 7 mph , 11 km/h
Temperature: 91°F , 33°C
Dew Point: 48°F , 9°C
Humidity: 23%
Barometer: 29.91 inHg , 1012.9 hPa
Clouds: Partly cloudy
Visibility: 10 miles , 16 km
Cloud details: Partly cloudy 12000 ft
2020/07/13 20:14 KFNL 132014Z 21006KT 10SM SCT120 33/09 A2991 RMK AO2 LTG DSNT NE AND E TSE08
KLMO - Longmont/Vbrand, Colorado, USA
Distance from station: SE 26mi, 41km
Updated: Mon, 13-Jul-2020 2:35pm MDT
Clear
Clear
 Wind from WSW
Wind: WSW 10 mph , 17 km/h
Temperature: 102°F , 39°C
Dew Point: 34°F , 1°C
Humidity: 9%
Barometer: 29.89 inHg , 1012.2 hPa
Clouds: Clear
Visibility: 10 miles , 16 km
2020/07/13 20:35 KLMO 132035Z AUTO 25009KT 210V280 10SM CLR 39/01 A2989 RMK AO2 T03860014
 
KBDU - Boulder Muni, Colorado, USA
Distance from station: SSE 32mi, 52km
Updated: Mon, 13-Jul-2020 2:30pm MDT
Clear
Clear
 Wind from WSW
Wind: WSW 15 mph , 24 km/h, Gust: 20 mph , 31 km/h
Temperature: 97°F , 36°C
Dew Point: 36°F , 2°C
Humidity: 12%
Barometer: 29.90 inHg , 1012.5 hPa
Clouds: Clear
Visibility: 10 miles , 16 km
2020/07/13 20:30 KBDU 132030Z AUTO 24013G17KT 10SM CLR 36/02 A2990 RMK AO2
KEIK - Erie Muni, Colorado, USA
Distance from station: SE 38mi, 61km
Updated: Mon, 13-Jul-2020 2:35pm MDT
Clear
Clear
 Wind from SE
Wind: SE 13 mph , 20 km/h, Gust: 17 mph , 28 km/h
Temperature: 97°F , 36°C
Dew Point: 37°F , 3°C
Humidity: 13%
Barometer: 29.95 inHg , 1014.2 hPa
Clouds: Clear
Visibility: 10 miles , 16 km
2020/07/13 20:35 KEIK 132035Z AUTO 14011G15KT 10SM CLR 36/03 A2995 RMK AO2 LTG DSNT N T03550031
 
KBJC - Broomfield/Jeffc, Colorado, USA
Distance from station: SSE 44mi, 70km
Updated: Mon, 13-Jul-2020 1:47pm MDT
Nearby showers, Mostly cloudy
Nearby showers, Mostly cloudy
 Wind from calm
Wind: Calm
Temperature: 81°F , 27°C
Dew Point: 50°F , 10°C
Humidity: 34%
Barometer: 30.00 inHg , 1015.9 hPa
Summary: Nearby Showers
Clouds: Mostly cloudy
Visibility: 30 miles , 48 km
Cloud details: Mostly cloudy 12000 ft
2020/07/13 19:47 KBJC 131947Z 00000KT 30SM VCSH BKN120CB 27/10 A3000 RMK TSE42
KGXY - Greeley/Weld, Colorado, USA
Distance from station: E 44mi, 71km
Updated: Mon, 13-Jul-2020 2:35pm MDT
Nearby thunderstorm, Few clouds
Nearby thunderstorm, Few clouds
 Wind from SW
Wind: SW 8 mph , 13 km/h
Temperature: 95°F , 35°C
Dew Point: 45°F , 7°C
Humidity: 18%
Barometer: 29.87 inHg , 1011.5 hPa
Summary: Nearby Thunderstorm
Clouds: Few Clouds
Visibility: 10 miles , 16 km
Cloud details: Few Clouds 11000 ft
2020/07/13 20:35 KGXY 132035Z AUTO 23007KT 10SM VCTS FEW110 35/07 A2987 RMK AO2 LTG DSNT NE TSB04E34B35RAB23E33 P0000
 
K33V - Walden, Colorado, USA
Distance from station: WNW 48mi, 77km
Updated: Mon, 13-Jul-2020 2:15pm MDT
Partly cloudy
Partly cloudy
 Wind from SW
Wind: SW 15 mph , 24 km/h, Gust: 26 mph , 43 km/h
Temperature: 81°F , 27°C
Dew Point: 34°F , 1°C
Humidity: 18%
Barometer: 30.17 inHg , 1021.7 hPa
Clouds: Partly cloudy
Visibility: 10 miles , 16 km
Cloud details: Partly cloudy 10000 ft
2020/07/13 20:15 K33V 132015Z AUTO 22013G23KT 180V240 10SM SCT100 27/01 A3017 RMK AO1
K0CO - Berthoud Pass, Colorado, USA
Distance from station: SSW 49mi, 79km
Updated: Mon, 13-Jul-2020 2:24pm MDT
Mostly cloudy
Mostly cloudy
 Wind from W
Wind: W 18 mph , 30 km/h, Gust: 40 mph , 65 km/h
Temperature: 55°F , 13°C
Dew Point: 37°F , 3°C
Humidity: 51%
Barometer: 30.59 inHg , 1035.9 hPa
Clouds: Mostly cloudy
Visibility: 10 miles , 16 km
Cloud details: Partly cloudy 6500 ft
Mostly cloudy 8500 ft
2020/07/13 20:24 K0CO 132024Z AUTO 28016G35KT 10SM SCT065 BKN085 13/03 A3059 RMK AO2 TSNO PWINO